sensor_id;sensor_type;location;lat;lon;timestamp;P1;durP1;ratioP1;P2;durP2;ratioP2
10489;SDS011;35569;48.402;10.670;2023-07-31T00:00:31;1.97;;;1.90;;
10489;SDS011;35569;48.402;10.670;2023-07-31T00:01:04;1.90;;;1.80;;
10489;SDS011;35569;48.402;10.670;2023-07-31T00:01:36;1.40;;;1.30;;
10489;SDS011;35569;48.402;10.670;2023-07-31T00:02:11;1.50;;;1.50;;
10489;SDS011;35569;48.402;10.670;2023-07-31T00:02:43;1.50;;;1.40;;
10489;SDS011;35569;48.402;10.670;2023-07-31T00:03:16;1.53;;;1.53;;
10489;SDS011;35569;48.402;10.670;2023-07-31T00:03:49;1.47;;;1.37;;
10489;SDS011;35569;48.402;10.670;2023-07-31T00:04:26;1.00;;;1.00;;
10489;SDS011;35569;48.402;10.670;2023-07-31T00:04:59;1.27;;;1.27;;
10489;SDS011;35569;48.402;10.670;2023-07-31T00:05:32;1.20;;;1.20;;
10489;SDS011;35569;48.402;10.670;2023-07-31T00:06:04;1.33;;;1.33;;
10489;SDS011;35569;48.402;10.670;2023-07-31T00:06:39;1.67;;;1.57;;
10489;SDS011;35569;48.402;10.670;2023-07-31T00:07:13;1.20;;;1.20;;
10489;SDS011;35569;48.402;10.670;2023-07-31T00:07:46;1.10;;;1.10;;
10489;SDS011;35569;48.402;10.670;2023-07-31T00:08:21;1.13;;;1.13;;
10489;SDS011;35569;48.402;10.670;2023-07-31T00:08:53;1.10;;;1.10;;
10489;SDS011;35569;48.402;10.670;2023-07-31T00:09:26;1.20;;;1.20;;
10489;SDS011;35569;48.402;10.670;2023-07-31T00:09:58;1.30;;;1.30;;
10489;SDS011;35569;48.402;10.670;2023-07-31T00:10:34;1.57;;;1.47;;
10489;SDS011;35569;48.402;10.670;2023-07-31T00:11:06;1.13;;;1.03;;
10489;SDS011;35569;48.402;10.670;2023-07-31T00:11:39;0.90;;;0.90;;
10489;SDS011;35569;48.402;10.670;2023-07-31T00:12:14;1.10;;;1.10;;
10489;SDS011;35569;48.402;10.670;2023-07-31T00:12:46;0.80;;;0.80;;
10489;SDS011;35569;48.402;10.670;2023-07-31T00:13:19;1.10;;;1.10;;
10489;SDS011;35569;48.402;10.670;2023-07-31T00:13:52;1.30;;;1.30;;
10489;SDS011;35569;48.402;10.670;2023-07-31T00:14:27;1.10;;;1.10;;
10489;SDS011;35569;48.402;10.670;2023-07-31T00:14:59;1.10;;;1.10;;
10489;SDS011;35569;48.402;10.670;2023-07-31T00:15:32;1.03;;;1.03;;
10489;SDS011;35569;48.402;10.670;2023-07-31T00:16:04;0.87;;;0.87;;
10489;SDS011;35569;48.402;10.670;2023-07-31T00:16:39;0.80;;;0.80;;
10489;SDS011;35569;48.402;10.670;2023-07-31T00:17:12;1.00;;;1.00;;
10489;SDS011;35569;48.402;10.670;2023-07-31T00:17:45;1.00;;;1.00;;
10489;SDS011;35569;48.402;10.670;2023-07-31T00:18:17;1.00;;;1.00;;
10489;SDS011;35569;48.402;10.670;2023-07-31T00:18:53;1.03;;;0.90;;
10489;SDS011;35569;48.402;10.670;2023-07-31T00:19:28;0.80;;;0.80;;
10489;SDS011;35569;48.402;10.670;2023-07-31T00:20:01;0.90;;;0.90;;
10489;SDS011;35569;48.402;10.670;2023-07-31T00:20:33;0.80;;;0.80;;
10489;SDS011;35569;48.402;10.670;2023-07-31T00:21:08;1.20;;;1.20;;
10489;SDS011;35569;48.402;10.670;2023-07-31T00:21:41;0.87;;;0.87;;
10489;SDS011;35569;48.402;10.670;2023-07-31T00:22:13;1.00;;;1.00;;
10489;SDS011;35569;48.402;10.670;2023-07-31T00:22:48;1.40;;;1.30;;
10489;SDS011;35569;48.402;10.670;2023-07-31T00:23:20;1.03;;;1.03;;
10489;SDS011;35569;48.402;10.670;2023-07-31T00:23:53;1.60;;;1.60;;
10489;SDS011;35569;48.402;10.670;2023-07-31T00:24:25;1.60;;;1.50;;
10489;SDS011;35569;48.402;10.670;2023-07-31T00:25:01;1.93;;;1.80;;
10489;SDS011;35569;48.402;10.670;2023-07-31T00:25:33;1.17;;;1.17;;
10489;SDS011;35569;48.402;10.670;2023-07-31T00:26:05;1.27;;;1.27;;
10489;SDS011;35569;48.402;10.670;2023-07-31T00:26:38;1.33;;;1.33;;
10489;SDS011;35569;48.402;10.670;2023-07-31T00:27:13;1.63;;;1.53;;
10489;SDS011;35569;48.402;10.670;2023-07-31T00:27:45;1.47;;;1.47;;
10489;SDS011;35569;48.402;10.670;2023-07-31T00:28:18;1.20;;;1.20;;
10489;SDS011;35569;48.402;10.670;2023-07-31T00:28:50;1.20;;;1.20;;
10489;SDS011;35569;48.402;10.670;2023-07-31T00:29:25;1.40;;;1.40;;
10489;SDS011;35569;48.402;10.670;2023-07-31T00:29:58;1.67;;;1.57;;
10489;SDS011;35569;48.402;10.670;2023-07-31T00:30:30;1.10;;;1.10;;
10489;SDS011;35569;48.402;10.670;2023-07-31T00:31:05;0.87;;;0.87;;
10489;SDS011;35569;48.402;10.670;2023-07-31T00:31:38;1.10;;;1.10;;
10489;SDS011;35569;48.402;10.670;2023-07-31T00:32:10;1.23;;;1.13;;
10489;SDS011;35569;48.402;10.670;2023-07-31T00:32:45;1.00;;;1.00;;
10489;SDS011;35569;48.402;10.670;2023-07-31T00:33:18;1.30;;;1.30;;
10489;SDS011;35569;48.402;10.670;2023-07-31T00:33:50;1.30;;;1.30;;
10489;SDS011;35569;48.402;10.670;2023-07-31T00:34:23;1.20;;;1.20;;
10489;SDS011;35569;48.402;10.670;2023-07-31T00:35:00;0.90;;;0.90;;
10489;SDS011;35569;48.402;10.670;2023-07-31T00:35:35;0.93;;;0.93;;
10489;SDS011;35569;48.402;10.670;2023-07-31T00:36:07;1.17;;;1.17;;
10489;SDS011;35569;48.402;10.670;2023-07-31T00:36:40;1.03;;;1.03;;
10489;SDS011;35569;48.402;10.670;2023-07-31T00:37:15;0.90;;;0.90;;
10489;SDS011;35569;48.402;10.670;2023-07-31T00:37:47;0.80;;;0.80;;
10489;SDS011;35569;48.402;10.670;2023-07-31T00:38:19;1.20;;;1.10;;
10489;SDS011;35569;48.402;10.670;2023-07-31T00:38:52;0.80;;;0.80;;
10489;SDS011;35569;48.402;10.670;2023-07-31T00:39:27;1.53;;;1.10;;
10489;SDS011;35569;48.402;10.670;2023-07-31T00:39:59;1.03;;;0.93;;
10489;SDS011;35569;48.402;10.670;2023-07-31T00:40:34;0.93;;;0.93;;
10489;SDS011;35569;48.402;10.670;2023-07-31T00:41:08;1.10;;;1.10;;
10489;SDS011;35569;48.402;10.670;2023-07-31T00:41:43;1.17;;;1.17;;
10489;SDS011;35569;48.402;10.670;2023-07-31T00:42:16;1.20;;;1.20;;
10489;SDS011;35569;48.402;10.670;2023-07-31T00:42:48;1.00;;;1.00;;
10489;SDS011;35569;48.402;10.670;2023-07-31T00:43:21;1.03;;;1.03;;
10489;SDS011;35569;48.402;10.670;2023-07-31T00:43:56;1.07;;;0.90;;
10489;SDS011;35569;48.402;10.670;2023-07-31T00:44:28;0.93;;;0.93;;
10489;SDS011;35569;48.402;10.670;2023-07-31T00:45:01;1.13;;;1.13;;
10489;SDS011;35569;48.402;10.670;2023-07-31T00:45:34;1.30;;;1.30;;
10489;SDS011;35569;48.402;10.670;2023-07-31T00:46:10;0.97;;;0.97;;
10489;SDS011;35569;48.402;10.670;2023-07-31T00:46:42;1.07;;;1.07;;
10489;SDS011;35569;48.402;10.670;2023-07-31T00:47:15;1.27;;;1.27;;
10489;SDS011;35569;48.402;10.670;2023-07-31T00:47:50;0.80;;;0.80;;
10489;SDS011;35569;48.402;10.670;2023-07-31T00:48:23;1.10;;;1.10;;
10489;SDS011;35569;48.402;10.670;2023-07-31T00:48:55;1.17;;;1.17;;
10489;SDS011;35569;48.402;10.670;2023-07-31T00:49:28;1.00;;;1.00;;
10489;SDS011;35569;48.402;10.670;2023-07-31T00:50:06;1.20;;;1.20;;
10489;SDS011;35569;48.402;10.670;2023-07-31T00:50:39;1.33;;;1.23;;
10489;SDS011;35569;48.402;10.670;2023-07-31T00:51:12;1.23;;;1.23;;
10489;SDS011;35569;48.402;10.670;2023-07-31T00:51:47;1.43;;;1.33;;
10489;SDS011;35569;48.402;10.670;2023-07-31T00:52:19;1.47;;;1.47;;
10489;SDS011;35569;48.402;10.670;2023-07-31T00:52:53;1.33;;;1.33;;
10489;SDS011;35569;48.402;10.670;2023-07-31T00:53:25;0.93;;;0.93;;
10489;SDS011;35569;48.402;10.670;2023-07-31T00:54:00;1.20;;;1.20;;
10489;SDS011;35569;48.402;10.670;2023-07-31T00:54:33;1.37;;;1.37;;
10489;SDS011;35569;48.402;10.670;2023-07-31T00:55:06;1.70;;;1.60;;
10489;SDS011;35569;48.402;10.670;2023-07-31T00:55:39;1.47;;;1.37;;
10489;SDS011;35569;48.402;10.670;2023-07-31T00:56:14;0.80;;;0.80;;
10489;SDS011;35569;48.402;10.670;2023-07-31T00:56:47;1.10;;;1.10;;
10489;SDS011;35569;48.402;10.670;2023-07-31T00:57:21;1.10;;;1.10;;
10489;SDS011;35569;48.402;10.670;2023-07-31T00:57:56;1.50;;;1.40;;
10489;SDS011;35569;48.402;10.670;2023-07-31T00:58:28;1.00;;;1.00;;
10489;SDS011;35569;48.402;10.670;2023-07-31T00:59:01;1.23;;;1.23;;
10489;SDS011;35569;48.402;10.670;2023-07-31T00:59:33;1.10;;;1.10;;
10489;SDS011;35569;48.402;10.670;2023-07-31T01:00:09;1.43;;;1.33;;
10489;SDS011;35569;48.402;10.670;2023-07-31T01:00:42;1.40;;;1.33;;
10489;SDS011;35569;48.402;10.670;2023-07-31T01:01:16;1.97;;;1.87;;
10489;SDS011;35569;48.402;10.670;2023-07-31T01:01:51;1.70;;;1.70;;
10489;SDS011;35569;48.402;10.670;2023-07-31T01:02:25;1.80;;;1.53;;
10489;SDS011;35569;48.402;10.670;2023-07-31T01:02:58;2.03;;;2.00;;
10489;SDS011;35569;48.402;10.670;2023-07-31T01:03:30;1.53;;;1.43;;
10489;SDS011;35569;48.402;10.670;2023-07-31T01:04:06;2.10;;;2.00;;
10489;SDS011;35569;48.402;10.670;2023-07-31T01:04:39;2.23;;;2.13;;
10489;SDS011;35569;48.402;10.670;2023-07-31T01:05:14;2.00;;;1.93;;
10489;SDS011;35569;48.402;10.670;2023-07-31T01:05:49;1.90;;;1.90;;
10489;SDS011;35569;48.402;10.670;2023-07-31T01:06:30;3.07;;;2.97;;
10489;SDS011;35569;48.402;10.670;2023-07-31T01:07:06;3.67;;;3.57;;
10489;SDS011;35569;48.402;10.670;2023-07-31T01:07:45;5.10;;;4.90;;
10489;SDS011;35569;48.402;10.670;2023-07-31T01:08:26;3.23;;;3.13;;
10489;SDS011;35569;48.402;10.670;2023-07-31T01:09:08;3.20;;;3.10;;
10489;SDS011;35569;48.402;10.670;2023-07-31T01:09:47;3.53;;;3.43;;
10489;SDS011;35569;48.402;10.670;2023-07-31T01:10:26;3.70;;;3.50;;
10489;SDS011;35569;48.402;10.670;2023-07-31T01:11:05;3.67;;;3.47;;
10489;SDS011;35569;48.402;10.670;2023-07-31T01:11:42;3.07;;;2.97;;
10489;SDS011;35569;48.402;10.670;2023-07-31T01:12:22;3.67;;;3.53;;
10489;SDS011;35569;48.402;10.670;2023-07-31T01:12:58;3.50;;;3.40;;
10489;SDS011;35569;48.402;10.670;2023-07-31T01:13:32;3.10;;;2.87;;
10489;SDS011;35569;48.402;10.670;2023-07-31T01:14:04;2.83;;;2.73;;
10489;SDS011;35569;48.402;10.670;2023-07-31T01:14:39;3.03;;;2.93;;
10489;SDS011;35569;48.402;10.670;2023-07-31T01:15:12;3.50;;;3.37;;
10489;SDS011;35569;48.402;10.670;2023-07-31T01:15:46;2.83;;;2.73;;
10489;SDS011;35569;48.402;10.670;2023-07-31T01:16:19;2.60;;;2.50;;
10489;SDS011;35569;48.402;10.670;2023-07-31T01:16:54;2.93;;;2.80;;
10489;SDS011;35569;48.402;10.670;2023-07-31T01:17:27;2.87;;;2.77;;
10489;SDS011;35569;48.402;10.670;2023-07-31T01:17:59;2.80;;;2.70;;
10489;SDS011;35569;48.402;10.670;2023-07-31T01:18:34;2.73;;;2.63;;
10489;SDS011;35569;48.402;10.670;2023-07-31T01:19:08;2.60;;;2.50;;
10489;SDS011;35569;48.402;10.670;2023-07-31T01:19:41;2.40;;;2.30;;
10489;SDS011;35569;48.402;10.670;2023-07-31T01:20:17;2.30;;;2.20;;
10489;SDS011;35569;48.402;10.670;2023-07-31T01:20:57;2.77;;;2.67;;
10489;SDS011;35569;48.402;10.670;2023-07-31T01:21:41;2.13;;;2.13;;
10489;SDS011;35569;48.402;10.670;2023-07-31T01:22:31;2.20;;;2.20;;
10489;SDS011;35569;48.402;10.670;2023-07-31T01:23:19;2.20;;;2.13;;
10489;SDS011;35569;48.402;10.670;2023-07-31T01:24:55;1.93;;;1.93;;
10489;SDS011;35569;48.402;10.670;2023-07-31T01:26:36;2.00;;;1.90;;
10489;SDS011;35569;48.402;10.670;2023-07-31T01:27:10;1.50;;;1.50;;
10489;SDS011;35569;48.402;10.670;2023-07-31T01:27:47;1.60;;;1.60;;
10489;SDS011;35569;48.402;10.670;2023-07-31T01:28:24;1.20;;;1.20;;
10489;SDS011;35569;48.402;10.670;2023-07-31T01:29:03;1.30;;;1.30;;
10489;SDS011;35569;48.402;10.670;2023-07-31T01:29:41;1.40;;;1.30;;
10489;SDS011;35569;48.402;10.670;2023-07-31T01:30:16;1.20;;;1.20;;
10489;SDS011;35569;48.402;10.670;2023-07-31T01:30:49;1.53;;;1.43;;
10489;SDS011;35569;48.402;10.670;2023-07-31T01:31:24;1.40;;;1.40;;
10489;SDS011;35569;48.402;10.670;2023-07-31T01:31:58;1.40;;;1.40;;
10489;SDS011;35569;48.402;10.670;2023-07-31T01:32:34;1.10;;;1.10;;
10489;SDS011;35569;48.402;10.670;2023-07-31T01:33:07;1.30;;;1.30;;
10489;SDS011;35569;48.402;10.670;2023-07-31T01:33:42;1.30;;;1.30;;
10489;SDS011;35569;48.402;10.670;2023-07-31T01:34:14;1.23;;;1.23;;
10489;SDS011;35569;48.402;10.670;2023-07-31T01:34:49;1.40;;;1.40;;
10489;SDS011;35569;48.402;10.670;2023-07-31T01:35:23;1.33;;;1.33;;
10489;SDS011;35569;48.402;10.670;2023-07-31T01:35:58;1.60;;;1.50;;
10489;SDS011;35569;48.402;10.670;2023-07-31T01:36:31;0.80;;;0.80;;
10489;SDS011;35569;48.402;10.670;2023-07-31T01:37:04;1.87;;;1.37;;
10489;SDS011;35569;48.402;10.670;2023-07-31T01:37:37;1.50;;;1.50;;
10489;SDS011;35569;48.402;10.670;2023-07-31T01:38:12;1.23;;;1.23;;
10489;SDS011;35569;48.402;10.670;2023-07-31T01:38:45;1.40;;;1.40;;
10489;SDS011;35569;48.402;10.670;2023-07-31T01:39:19;1.17;;;1.17;;
10489;SDS011;35569;48.402;10.670;2023-07-31T01:39:55;1.10;;;1.10;;
10489;SDS011;35569;48.402;10.670;2023-07-31T01:40:27;1.20;;;1.20;;
10489;SDS011;35569;48.402;10.670;2023-07-31T01:41:00;1.57;;;1.47;;
10489;SDS011;35569;48.402;10.670;2023-07-31T01:41:35;0.90;;;0.90;;
10489;SDS011;35569;48.402;10.670;2023-07-31T01:42:10;0.97;;;0.97;;
10489;SDS011;35569;48.402;10.670;2023-07-31T01:42:42;1.10;;;1.10;;
10489;SDS011;35569;48.402;10.670;2023-07-31T01:43:15;1.00;;;1.00;;
10489;SDS011;35569;48.402;10.670;2023-07-31T01:43:48;1.13;;;1.13;;
10489;SDS011;35569;48.402;10.670;2023-07-31T01:44:23;1.20;;;1.20;;
10489;SDS011;35569;48.402;10.670;2023-07-31T01:44:55;1.10;;;1.10;;
10489;SDS011;35569;48.402;10.670;2023-07-31T01:45:28;1.33;;;1.33;;
10489;SDS011;35569;48.402;10.670;2023-07-31T01:46:00;1.10;;;1.10;;
10489;SDS011;35569;48.402;10.670;2023-07-31T01:46:35;0.93;;;0.93;;
10489;SDS011;35569;48.402;10.670;2023-07-31T01:47:09;1.30;;;1.30;;
10489;SDS011;35569;48.402;10.670;2023-07-31T01:47:41;1.10;;;1.10;;
10489;SDS011;35569;48.402;10.670;2023-07-31T01:48:16;1.00;;;1.00;;
10489;SDS011;35569;48.402;10.670;2023-07-31T01:48:51;1.27;;;1.27;;
10489;SDS011;35569;48.402;10.670;2023-07-31T01:49:23;1.10;;;1.10;;
10489;SDS011;35569;48.402;10.670;2023-07-31T01:49:56;1.20;;;1.20;;
10489;SDS011;35569;48.402;10.670;2023-07-31T01:50:31;1.10;;;1.10;;
10489;SDS011;35569;48.402;10.670;2023-07-31T01:51:04;1.20;;;1.20;;
10489;SDS011;35569;48.402;10.670;2023-07-31T01:51:36;1.20;;;1.20;;
10489;SDS011;35569;48.402;10.670;2023-07-31T01:52:09;1.00;;;1.00;;
10489;SDS011;35569;48.402;10.670;2023-07-31T01:52:44;0.80;;;0.80;;
10489;SDS011;35569;48.402;10.670;2023-07-31T01:53:16;1.10;;;1.10;;
10489;SDS011;35569;48.402;10.670;2023-07-31T01:53:49;1.00;;;1.00;;
10489;SDS011;35569;48.402;10.670;2023-07-31T01:54:24;1.10;;;1.10;;
10489;SDS011;35569;48.402;10.670;2023-07-31T01:54:56;1.20;;;1.20;;
10489;SDS011;35569;48.402;10.670;2023-07-31T01:55:29;0.90;;;0.90;;
10489;SDS011;35569;48.402;10.670;2023-07-31T01:56:02;0.93;;;0.93;;
10489;SDS011;35569;48.402;10.670;2023-07-31T01:56:41;1.20;;;1.20;;
10489;SDS011;35569;48.402;10.670;2023-07-31T01:57:13;1.07;;;1.07;;
10489;SDS011;35569;48.402;10.670;2023-07-31T01:57:46;1.27;;;1.00;;
10489;SDS011;35569;48.402;10.670;2023-07-31T01:58:20;1.20;;;1.20;;
10489;SDS011;35569;48.402;10.670;2023-07-31T01:58:55;1.13;;;1.13;;
10489;SDS011;35569;48.402;10.670;2023-07-31T01:59:27;1.23;;;1.23;;
10489;SDS011;35569;48.402;10.670;2023-07-31T02:00:00;1.40;;;1.40;;
10489;SDS011;35569;48.402;10.670;2023-07-31T02:00:42;1.10;;;1.10;;
10489;SDS011;35569;48.402;10.670;2023-07-31T02:01:14;1.27;;;1.27;;
10489;SDS011;35569;48.402;10.670;2023-07-31T02:01:47;1.20;;;1.20;;
10489;SDS011;35569;48.402;10.670;2023-07-31T02:02:20;1.33;;;1.33;;
10489;SDS011;35569;48.402;10.670;2023-07-31T02:02:55;1.20;;;1.20;;
10489;SDS011;35569;48.402;10.670;2023-07-31T02:03:28;1.20;;;1.20;;
10489;SDS011;35569;48.402;10.670;2023-07-31T02:04:01;1.37;;;1.27;;
10489;SDS011;35569;48.402;10.670;2023-07-31T02:04:33;1.20;;;1.20;;
10489;SDS011;35569;48.402;10.670;2023-07-31T02:05:10;1.30;;;1.30;;
10489;SDS011;35569;48.402;10.670;2023-07-31T02:05:44;2.60;;;1.30;;
10489;SDS011;35569;48.402;10.670;2023-07-31T02:06:16;1.50;;;1.50;;
10489;SDS011;35569;48.402;10.670;2023-07-31T02:06:49;1.33;;;1.33;;
10489;SDS011;35569;48.402;10.670;2023-07-31T02:07:25;1.20;;;1.20;;
10489;SDS011;35569;48.402;10.670;2023-07-31T02:07:57;1.33;;;1.33;;
10489;SDS011;35569;48.402;10.670;2023-07-31T02:08:31;2.90;;;1.30;;
10489;SDS011;35569;48.402;10.670;2023-07-31T02:09:04;1.10;;;1.10;;
10489;SDS011;35569;48.402;10.670;2023-07-31T02:09:39;1.20;;;1.20;;
10489;SDS011;35569;48.402;10.670;2023-07-31T02:10:11;1.20;;;1.20;;
10489;SDS011;35569;48.402;10.670;2023-07-31T02:10:44;1.10;;;1.10;;
10489;SDS011;35569;48.402;10.670;2023-07-31T02:11:16;1.20;;;1.20;;
10489;SDS011;35569;48.402;10.670;2023-07-31T02:11:56;1.10;;;1.10;;
10489;SDS011;35569;48.402;10.670;2023-07-31T02:12:28;1.10;;;1.10;;
10489;SDS011;35569;48.402;10.670;2023-07-31T02:13:03;1.23;;;1.10;;
10489;SDS011;35569;48.402;10.670;2023-07-31T02:13:36;1.37;;;1.37;;
10489;SDS011;35569;48.402;10.670;2023-07-31T02:14:11;1.10;;;1.10;;
10489;SDS011;35569;48.402;10.670;2023-07-31T02:14:43;1.30;;;1.30;;
10489;SDS011;35569;48.402;10.670;2023-07-31T02:15:16;1.27;;;1.27;;
10489;SDS011;35569;48.402;10.670;2023-07-31T02:15:50;1.70;;;1.60;;
10489;SDS011;35569;48.402;10.670;2023-07-31T02:16:25;1.13;;;1.13;;
10489;SDS011;35569;48.402;10.670;2023-07-31T02:16:57;1.30;;;1.30;;
10489;SDS011;35569;48.402;10.670;2023-07-31T02:17:30;1.20;;;1.20;;
10489;SDS011;35569;48.402;10.670;2023-07-31T02:18:03;1.17;;;1.17;;
10489;SDS011;35569;48.402;10.670;2023-07-31T02:18:38;1.10;;;1.10;;
10489;SDS011;35569;48.402;10.670;2023-07-31T02:19:10;1.20;;;1.20;;
10489;SDS011;35569;48.402;10.670;2023-07-31T02:19:42;1.50;;;1.33;;
10489;SDS011;35569;48.402;10.670;2023-07-31T02:20:18;1.10;;;1.10;;
10489;SDS011;35569;48.402;10.670;2023-07-31T02:20:50;1.13;;;1.13;;
10489;SDS011;35569;48.402;10.670;2023-07-31T02:21:23;1.20;;;1.20;;
10489;SDS011;35569;48.402;10.670;2023-07-31T02:21:55;1.20;;;1.20;;
10489;SDS011;35569;48.402;10.670;2023-07-31T02:22:30;1.40;;;1.40;;
10489;SDS011;35569;48.402;10.670;2023-07-31T02:23:03;1.00;;;1.00;;
10489;SDS011;35569;48.402;10.670;2023-07-31T02:23:35;1.23;;;1.20;;
10489;SDS011;35569;48.402;10.670;2023-07-31T02:24:08;1.47;;;1.47;;
10489;SDS011;35569;48.402;10.670;2023-07-31T02:24:43;1.20;;;1.20;;
10489;SDS011;35569;48.402;10.670;2023-07-31T02:25:15;1.10;;;1.10;;
10489;SDS011;35569;48.402;10.670;2023-07-31T02:25:49;1.50;;;1.40;;
10489;SDS011;35569;48.402;10.670;2023-07-31T02:26:22;1.17;;;1.17;;
10489;SDS011;35569;48.402;10.670;2023-07-31T02:26:59;1.10;;;1.00;;
10489;SDS011;35569;48.402;10.670;2023-07-31T02:27:32;1.30;;;1.30;;
10489;SDS011;35569;48.402;10.670;2023-07-31T02:28:04;1.53;;;1.47;;
10489;SDS011;35569;48.402;10.670;2023-07-31T02:28:37;1.40;;;1.40;;
10489;SDS011;35569;48.402;10.670;2023-07-31T02:29:16;1.10;;;1.10;;
10489;SDS011;35569;48.402;10.670;2023-07-31T02:29:49;1.13;;;1.03;;
10489;SDS011;35569;48.402;10.670;2023-07-31T02:30:21;1.33;;;1.33;;
10489;SDS011;35569;48.402;10.670;2023-07-31T02:30:54;1.40;;;1.40;;
10489;SDS011;35569;48.402;10.670;2023-07-31T02:31:30;1.33;;;1.23;;
10489;SDS011;35569;48.402;10.670;2023-07-31T02:32:02;1.07;;;1.00;;
10489;SDS011;35569;48.402;10.670;2023-07-31T02:32:35;1.40;;;1.30;;
10489;SDS011;35569;48.402;10.670;2023-07-31T02:33:08;1.10;;;1.10;;
10489;SDS011;35569;48.402;10.670;2023-07-31T02:33:43;0.90;;;0.90;;
10489;SDS011;35569;48.402;10.670;2023-07-31T02:34:15;1.13;;;1.13;;
10489;SDS011;35569;48.402;10.670;2023-07-31T02:34:48;1.30;;;1.30;;
10489;SDS011;35569;48.402;10.670;2023-07-31T02:35:21;1.10;;;1.10;;
10489;SDS011;35569;48.402;10.670;2023-07-31T02:35:56;1.50;;;1.50;;
10489;SDS011;35569;48.402;10.670;2023-07-31T02:36:28;1.53;;;1.33;;
10489;SDS011;35569;48.402;10.670;2023-07-31T02:37:01;1.30;;;1.20;;
10489;SDS011;35569;48.402;10.670;2023-07-31T02:37:33;1.03;;;1.03;;
10489;SDS011;35569;48.402;10.670;2023-07-31T02:38:08;1.20;;;1.20;;
10489;SDS011;35569;48.402;10.670;2023-07-31T02:38:41;1.00;;;1.00;;
10489;SDS011;35569;48.402;10.670;2023-07-31T02:39:13;1.00;;;1.00;;
10489;SDS011;35569;48.402;10.670;2023-07-31T02:39:48;1.00;;;1.00;;
10489;SDS011;35569;48.402;10.670;2023-07-31T02:40:21;1.20;;;1.20;;
10489;SDS011;35569;48.402;10.670;2023-07-31T02:40:53;1.20;;;1.10;;
10489;SDS011;35569;48.402;10.670;2023-07-31T02:41:26;1.30;;;1.20;;
10489;SDS011;35569;48.402;10.670;2023-07-31T02:42:03;1.07;;;1.07;;
10489;SDS011;35569;48.402;10.670;2023-07-31T02:42:36;1.10;;;1.10;;
10489;SDS011;35569;48.402;10.670;2023-07-31T02:43:09;1.00;;;1.00;;
10489;SDS011;35569;48.402;10.670;2023-07-31T02:43:44;0.93;;;0.93;;
10489;SDS011;35569;48.402;10.670;2023-07-31T02:44:16;1.10;;;1.00;;
10489;SDS011;35569;48.402;10.670;2023-07-31T02:44:49;1.00;;;1.00;;
10489;SDS011;35569;48.402;10.670;2023-07-31T02:45:27;1.53;;;1.43;;
10489;SDS011;35569;48.402;10.670;2023-07-31T02:46:02;1.27;;;1.07;;
10489;SDS011;35569;48.402;10.670;2023-07-31T02:46:35;0.90;;;0.90;;
10489;SDS011;35569;48.402;10.670;2023-07-31T02:47:08;1.20;;;1.20;;
10489;SDS011;35569;48.402;10.670;2023-07-31T02:47:40;0.73;;;0.73;;
10489;SDS011;35569;48.402;10.670;2023-07-31T02:48:15;1.10;;;1.10;;
10489;SDS011;35569;48.402;10.670;2023-07-31T02:48:48;0.80;;;0.80;;
10489;SDS011;35569;48.402;10.670;2023-07-31T02:49:20;0.97;;;0.97;;
10489;SDS011;35569;48.402;10.670;2023-07-31T02:49:53;1.10;;;1.10;;
10489;SDS011;35569;48.402;10.670;2023-07-31T02:50:28;1.00;;;1.00;;
10489;SDS011;35569;48.402;10.670;2023-07-31T02:51:00;1.30;;;1.30;;
10489;SDS011;35569;48.402;10.670;2023-07-31T02:51:33;1.13;;;1.13;;
10489;SDS011;35569;48.402;10.670;2023-07-31T02:52:08;1.03;;;1.03;;
10489;SDS011;35569;48.402;10.670;2023-07-31T02:52:40;1.30;;;1.30;;
10489;SDS011;35569;48.402;10.670;2023-07-31T02:53:12;1.00;;;1.00;;
10489;SDS011;35569;48.402;10.670;2023-07-31T02:53:45;1.17;;;1.17;;
10489;SDS011;35569;48.402;10.670;2023-07-31T02:54:22;1.10;;;1.10;;
10489;SDS011;35569;48.402;10.670;2023-07-31T02:54:54;0.90;;;0.90;;
10489;SDS011;35569;48.402;10.670;2023-07-31T02:55:27;1.23;;;1.23;;
10489;SDS011;35569;48.402;10.670;2023-07-31T02:56:02;1.30;;;1.30;;
10489;SDS011;35569;48.402;10.670;2023-07-31T02:56:35;0.90;;;0.90;;
10489;SDS011;35569;48.402;10.670;2023-07-31T02:57:10;1.17;;;1.17;;
10489;SDS011;35569;48.402;10.670;2023-07-31T02:57:42;1.27;;;1.27;;
10489;SDS011;35569;48.402;10.670;2023-07-31T02:58:15;3.40;;;2.80;;
10489;SDS011;35569;48.402;10.670;2023-07-31T02:58:50;1.00;;;1.00;;
10489;SDS011;35569;48.402;10.670;2023-07-31T02:59:22;1.20;;;1.20;;
10489;SDS011;35569;48.402;10.670;2023-07-31T02:59:55;1.00;;;1.00;;
10489;SDS011;35569;48.402;10.670;2023-07-31T03:00:27;1.17;;;1.17;;
10489;SDS011;35569;48.402;10.670;2023-07-31T03:01:02;1.13;;;1.13;;
10489;SDS011;35569;48.402;10.670;2023-07-31T03:01:35;1.20;;;1.20;;
10489;SDS011;35569;48.402;10.670;2023-07-31T03:02:07;1.23;;;1.23;;
10489;SDS011;35569;48.402;10.670;2023-07-31T03:02:40;0.80;;;0.80;;
10489;SDS011;35569;48.402;10.670;2023-07-31T03:03:15;1.00;;;1.00;;
10489;SDS011;35569;48.402;10.670;2023-07-31T03:03:48;1.10;;;1.10;;
10489;SDS011;35569;48.402;10.670;2023-07-31T03:04:20;0.90;;;0.90;;
10489;SDS011;35569;48.402;10.670;2023-07-31T03:04:53;1.00;;;1.00;;
10489;SDS011;35569;48.402;10.670;2023-07-31T03:05:28;1.20;;;1.20;;
10489;SDS011;35569;48.402;10.670;2023-07-31T03:06:00;1.30;;;1.20;;
10489;SDS011;35569;48.402;10.670;2023-07-31T03:06:32;1.33;;;1.33;;
10489;SDS011;35569;48.402;10.670;2023-07-31T03:07:05;1.20;;;1.20;;
10489;SDS011;35569;48.402;10.670;2023-07-31T03:07:40;1.10;;;1.10;;
10489;SDS011;35569;48.402;10.670;2023-07-31T03:08:13;1.40;;;1.30;;
10489;SDS011;35569;48.402;10.670;2023-07-31T03:08:45;1.00;;;1.00;;
10489;SDS011;35569;48.402;10.670;2023-07-31T03:09:20;1.17;;;1.17;;
10489;SDS011;35569;48.402;10.670;2023-07-31T03:09:53;1.13;;;1.13;;
10489;SDS011;35569;48.402;10.670;2023-07-31T03:10:25;1.07;;;1.07;;
10489;SDS011;35569;48.402;10.670;2023-07-31T03:10:58;1.00;;;1.00;;
10489;SDS011;35569;48.402;10.670;2023-07-31T03:11:33;1.43;;;1.00;;
10489;SDS011;35569;48.402;10.670;2023-07-31T03:12:06;1.03;;;1.03;;
10489;SDS011;35569;48.402;10.670;2023-07-31T03:12:44;1.47;;;1.47;;
10489;SDS011;35569;48.402;10.670;2023-07-31T03:13:18;1.03;;;1.00;;
10489;SDS011;35569;48.402;10.670;2023-07-31T03:13:53;1.20;;;1.20;;
10489;SDS011;35569;48.402;10.670;2023-07-31T03:14:26;0.80;;;0.80;;
10489;SDS011;35569;48.402;10.670;2023-07-31T03:14:58;1.00;;;1.00;;
10489;SDS011;35569;48.402;10.670;2023-07-31T03:15:31;0.90;;;0.90;;
10489;SDS011;35569;48.402;10.670;2023-07-31T03:16:06;0.80;;;0.80;;
10489;SDS011;35569;48.402;10.670;2023-07-31T03:16:38;1.00;;;1.00;;
10489;SDS011;35569;48.402;10.670;2023-07-31T03:17:11;0.83;;;0.83;;
10489;SDS011;35569;48.402;10.670;2023-07-31T03:17:46;1.00;;;1.00;;
10489;SDS011;35569;48.402;10.670;2023-07-31T03:18:19;1.03;;;1.03;;
10489;SDS011;35569;48.402;10.670;2023-07-31T03:18:51;1.17;;;1.17;;
10489;SDS011;35569;48.402;10.670;2023-07-31T03:19:24;1.10;;;1.10;;
10489;SDS011;35569;48.402;10.670;2023-07-31T03:19:59;1.37;;;1.37;;
10489;SDS011;35569;48.402;10.670;2023-07-31T03:20:31;1.87;;;1.20;;
10489;SDS011;35569;48.402;10.670;2023-07-31T03:21:04;1.10;;;1.10;;
10489;SDS011;35569;48.402;10.670;2023-07-31T03:21:36;1.10;;;1.03;;
10489;SDS011;35569;48.402;10.670;2023-07-31T03:22:11;1.07;;;1.07;;
10489;SDS011;35569;48.402;10.670;2023-07-31T03:22:44;2.00;;;0.93;;
10489;SDS011;35569;48.402;10.670;2023-07-31T03:23:16;1.23;;;1.23;;